Time;durP1;ratioP1;P1;durP2;ratioP2;P2;SDS_P1;SDS_P2;PMS_P1;PMS_P2;Temp;Humidity;BMP_temperature;BMP_pressure;BME280_temperature;BME280_humidity;BME280_pressure;Samples;Min_cycle;Max_cycle;Signal;HPM_P1;HPM_P2
2023/07/18 00:02:10;;;;;;;492.30;466.77;;;12.30;99.90;;;;;;5071534;28;20968;-73
2023/07/18 00:04:38;;;;;;;455.90;432.73;;;12.40;99.90;;;;;;5071672;28;20542;-73
2023/07/18 00:07:06;;;;;;;472.53;448.43;;;12.40;99.90;;;;;;5071196;28;20544;-73
2023/07/18 00:09:34;;;;;;;433.97;411.87;;;12.60;99.90;;;;;;5071593;28;20550;-74
2023/07/18 00:12:05;;;;;;;434.17;412.63;;;12.60;99.90;;;;;;5071555;28;20845;-73
2023/07/18 00:14:32;;;;;;;417.67;397.23;;;12.60;99.90;;;;;;5071821;28;20557;-73
2023/07/18 00:16:59;;;;;;;385.60;367.53;;;12.70;99.90;;;;;;5071107;28;20450;-73
2023/07/18 00:19:27;;;;;;;384.13;366.13;;;12.70;99.90;;;;;;5071124;28;20648;-73
2023/07/18 00:21:54;;;;;;;379.47;362.10;;;12.60;99.90;;;;;;5071434;28;20454;-73
2023/07/18 00:24:21;;;;;;;308.60;295.50;;;12.50;99.90;;;;;;5071466;28;20555;-73
2023/07/18 00:26:48;;;;;;;324.93;310.73;;;12.40;99.90;;;;;;5070976;28;20514;-73
2023/07/18 00:29:16;;;;;;;383.40;365.73;;;12.20;99.90;;;;;;5071315;28;20451;-73
2023/07/18 00:31:43;;;;;;;367.63;351.10;;;12.20;99.90;;;;;;5071149;28;20457;-73
2023/07/18 00:34:11;;;;;;;357.43;341.33;;;12.10;99.90;;;;;;5071015;28;20461;-73
2023/07/18 00:36:38;;;;;;;372.70;355.20;;;12.00;99.90;;;;;;5070991;28;20447;-73
2023/07/18 00:39:05;;;;;;;466.73;443.67;;;11.90;99.90;;;;;;5071636;28;20813;-73
2023/07/18 00:41:32;;;;;;;477.13;453.03;;;11.80;99.90;;;;;;5071083;28;20469;-73
2023/07/18 00:43:58;;;;;;;502.53;475.20;;;11.80;99.90;;;;;;5071417;28;20927;-73
2023/07/18 00:46:27;;;;;;;517.20;488.67;;;11.70;99.90;;;;;;5070569;28;20481;-73
2023/07/18 00:48:54;;;;;;;490.90;464.50;;;11.70;99.90;;;;;;5071211;28;20457;-73
2023/07/18 00:51:24;;;;;;;507.57;478.57;;;11.60;99.90;;;;;;5070876;28;20447;-73
2023/07/18 00:53:51;;;;;;;557.30;525.00;;;11.60;99.90;;;;;;5071105;28;20524;-74
2023/07/18 00:56:18;;;;;;;578.17;542.77;;;11.60;99.90;;;;;;5070586;28;20451;-74
2023/07/18 00:58:46;;;;;;;656.77;614.53;;;11.80;99.90;;;;;;5071445;28;20455;-74
2023/07/18 01:01:13;;;;;;;633.83;591.73;;;12.00;99.90;;;;;;5070069;28;20455;-73
2023/07/18 01:03:41;;;;;;;598.23;560.40;;;12.10;99.90;;;;;;5070989;28;20544;-73
2023/07/18 01:06:09;;;;;;;590.17;554.20;;;12.30;99.90;;;;;;5070675;28;20485;-73
2023/07/18 01:08:37;;;;;;;586.13;550.37;;;12.40;99.90;;;;;;5071237;28;20501;-73
2023/07/18 01:11:06;;;;;;;559.87;526.20;;;12.50;99.90;;;;;;5070883;28;20451;-73
2023/07/18 01:13:33;;;;;;;513.20;483.80;;;12.60;99.90;;;;;;5070600;28;20477;-73
2023/07/18 01:16:00;;;;;;;479.23;452.57;;;12.70;99.90;;;;;;5070455;28;20473;-73
2023/07/18 01:18:27;;;;;;;442.40;419.07;;;12.70;99.90;;;;;;5070900;28;20451;-73
2023/07/18 01:20:56;;;;;;;415.93;395.70;;;12.70;99.90;;;;;;5070697;28;20466;-72
2023/07/18 01:23:24;;;;;;;371.97;354.80;;;12.60;99.90;;;;;;5070903;28;20815;-73
2023/07/18 01:25:51;;;;;;;353.57;337.87;;;12.50;99.90;;;;;;5070608;28;20485;-72
2023/07/18 01:28:18;;;;;;;356.50;340.90;;;12.40;99.90;;;;;;5070167;28;20458;-73
2023/07/18 01:30:45;;;;;;;356.30;340.80;;;12.20;99.90;;;;;;5070818;28;20820;-73
2023/07/18 01:33:12;;;;;;;477.67;454.87;;;12.10;99.90;;;;;;5070128;28;20753;-73
2023/07/18 01:35:39;;;;;;;506.13;480.63;;;12.20;99.90;;;;;;5070626;28;20458;-73
2023/07/18 01:38:06;;;;;;;492.57;467.13;;;12.40;99.90;;;;;;5070273;28;20457;-74
2023/07/18 01:40:34;;;;;;;457.07;434.43;;;12.40;99.90;;;;;;5070627;28;20535;-73
2023/07/18 01:43:01;;;;;;;417.67;397.37;;;12.40;99.90;;;;;;5070513;28;20555;-72
2023/07/18 01:45:29;;;;;;;334.43;319.40;;;12.50;99.90;;;;;;5070426;28;20482;-73
2023/07/18 01:47:57;;;;;;;346.67;331.87;;;12.30;99.90;;;;;;5070273;28;20818;-72
2023/07/18 01:50:24;;;;;;;338.97;324.17;;;12.30;99.90;;;;;;5070508;28;20454;-72
2023/07/18 01:52:51;;;;;;;354.13;338.93;;;12.20;99.90;;;;;;5070552;28;20451;-72
2023/07/18 01:55:18;;;;;;;400.67;382.63;;;12.10;99.90;;;;;;5070515;28;20512;-72
2023/07/18 01:57:48;;;;;;;423.47;404.00;;;12.10;99.90;;;;;;5070189;28;20450;-73
2023/07/18 02:00:19;;;;;;;410.70;391.50;;;12.00;99.90;;;;;;5070160;28;20542;-72
2023/07/18 02:02:48;;;;;;;385.50;368.43;;;11.90;99.90;;;;;;5070466;28;20825;-72
2023/07/18 02:05:16;;;;;;;474.23;450.23;;;11.80;99.90;;;;;;5070363;28;20450;-72
2023/07/18 02:07:43;;;;;;;472.40;449.13;;;11.70;99.90;;;;;;5069853;28;20474;-73
2023/07/18 02:10:10;;;;;;;476.07;452.30;;;11.70;99.90;;;;;;5070216;28;20487;-73
2023/07/18 02:12:37;;;;;;;505.70;478.53;;;11.60;99.90;;;;;;5069983;28;20473;-73
2023/07/18 02:15:06;;;;;;;500.00;473.73;;;11.60;99.90;;;;;;5073475;28;20451;-73
2023/07/18 02:17:34;;;;;;;523.90;495.00;;;11.50;99.90;;;;;;5073598;28;20450;-74
2023/07/18 02:20:05;;;;;;;568.33;536.87;;;11.40;99.90;;;;;;5073671;28;20466;-72
2023/07/18 02:22:34;;;;;;;598.33;565.03;;;11.30;99.90;;;;;;5073719;28;20973;-75
2023/07/18 02:25:00;;;;;;;590.37;557.97;;;11.20;99.90;;;;;;5073575;28;20548;-71
2023/07/18 02:27:27;;;;;;;593.90;561.70;;;11.10;99.90;;;;;;5072993;28;20479;-72
2023/07/18 02:29:55;;;;;;;583.30;551.50;;;11.00;99.90;;;;;;5073529;28;20457;-74
2023/07/18 02:32:23;;;;;;;609.17;576.10;;;10.90;99.90;;;;;;5073524;28;20457;-73
2023/07/18 02:34:50;;;;;;;653.90;616.60;;;10.80;99.90;;;;;;5073353;28;20459;-73
2023/07/18 02:37:17;;;;;;;655.20;618.00;;;10.70;99.90;;;;;;5073134;28;20961;-73
2023/07/18 02:39:44;;;;;;;638.50;602.70;;;10.60;99.90;;;;;;5073158;28;20469;-73
2023/07/18 02:42:12;;;;;;;651.63;613.97;;;10.60;99.90;;;;;;5073537;28;20566;-73
2023/07/18 02:44:39;;;;;;;649.17;612.00;;;10.50;99.90;;;;;;5073189;28;20512;-73
2023/07/18 02:47:09;;;;;;;672.43;632.57;;;10.50;99.90;;;;;;5072825;28;20481;-73
2023/07/18 02:49:37;;;;;;;740.97;694.70;;;10.50;99.90;;;;;;5073103;28;20462;-73
2023/07/18 02:52:04;;;;;;;789.07;738.50;;;10.40;99.90;;;;;;5072881;28;20454;-73
2023/07/18 02:54:31;;;;;;;805.37;751.87;;;10.40;99.90;;;;;;5073007;28;20454;-73
2023/07/18 02:56:58;;;;;;;791.07;738.80;;;10.30;99.90;;;;;;5072949;28;20477;-73
2023/07/18 02:59:25;;;;;;;824.20;769.40;;;10.40;99.90;;;;;;5072931;28;20461;-73
2023/07/18 03:01:54;;;;;;;851.97;793.17;;;10.40;99.90;;;;;;5072957;28;20875;-73
2023/07/18 03:04:21;;;;;;;844.57;787.43;;;10.40;99.90;;;;;;5073036;28;20846;-73
2023/07/18 03:06:51;;;;;;;848.10;793.13;;;10.40;99.90;;;;;;5072325;28;20487;-74
2023/07/18 03:09:19;;;;;;;843.13;787.83;;;10.40;99.90;;;;;;5073044;28;20539;-73
2023/07/18 03:11:46;;;;;;;847.33;790.50;;;10.30;99.90;;;;;;5072665;28;20458;-74
2023/07/18 03:14:14;;;;;;;853.10;797.00;;;10.30;99.90;;;;;;5072537;28;20461;-73
2023/07/18 03:16:41;;;;;;;921.17;859.03;;;10.30;99.90;;;;;;5072281;28;20454;-73
2023/07/18 03:19:10;;;;;;;904.73;845.13;;;10.30;99.90;;;;;;5072546;28;20536;-73
2023/07/18 03:21:37;;;;;;;916.30;854.40;;;10.20;99.90;;;;;;5072641;28;20461;-73
2023/07/18 03:24:07;;;;;;;917.57;854.77;;;10.30;99.90;;;;;;5072028;28;20447;-73
2023/07/18 03:26:36;;;;;;;887.27;828.77;;;10.20;99.90;;;;;;5072018;28;20475;-73
2023/07/18 03:29:04;;;;;;;856.07;800.13;;;10.20;99.90;;;;;;5072366;28;20450;-73
2023/07/18 03:31:31;;;;;;;887.07;829.10;;;10.10;99.90;;;;;;5072244;28;20968;-73
2023/07/18 03:33:58;;;;;;;873.17;816.37;;;10.00;99.90;;;;;;5072133;28;20465;-73
2023/07/18 03:36:26;;;;;;;907.93;848.40;;;9.90;99.90;;;;;;5072055;28;20451;-73
2023/07/18 03:38:52;;;;;;;911.20;852.30;;;9.90;99.90;;;;;;5072306;28;20842;-73
2023/07/18 03:41:21;;;;;;;897.67;840.13;;;9.90;99.90;;;;;;5072008;28;20524;-71
2023/07/18 03:43:48;;;;;;;882.13;826.13;;;9.90;99.90;;;;;;5072149;28;20455;-72
2023/07/18 03:46:14;;;;;;;878.70;823.80;;;9.80;99.90;;;;;;5071622;28;20453;-72
2023/07/18 03:48:41;;;;;;;887.80;831.50;;;9.70;99.90;;;;;;5071808;28;20470;-72
2023/07/18 03:51:08;;;;;;;905.70;844.00;;;9.70;99.90;;;;;;5072097;28;20451;-72
2023/07/18 03:53:35;;;;;;;907.63;844.30;;;9.70;99.90;;;;;;5071928;28;20453;-71
2023/07/18 03:56:04;;;;;;;915.63;853.73;;;9.70;99.90;;;;;;5071604;28;20451;-71
2023/07/18 03:58:32;;;;;;;913.57;851.40;;;9.80;99.90;;;;;;5071649;28;20476;-71
2023/07/18 04:00:59;;;;;;;902.50;840.27;;;9.80;99.90;;;;;;5071588;28;20454;-72
2023/07/18 04:03:26;;;;;;;870.53;810.80;;;9.90;99.90;;;;;;5071989;28;20537;-71
2023/07/18 04:05:56;;;;;;;837.50;782.33;;;9.90;99.90;;;;;;5071689;28;20464;-71
2023/07/18 04:08:23;;;;;;;818.27;767.57;;;9.90;99.90;;;;;;5071537;28;20481;-71
2023/07/18 04:10:50;;;;;;;783.57;736.27;;;9.80;99.90;;;;;;5071811;28;20938;-71
2023/07/18 04:13:17;;;;;;;803.40;754.53;;;9.80;99.90;;;;;;5071541;28;20994;-71
2023/07/18 04:15:45;;;;;;;834.60;781.20;;;9.70;99.90;;;;;;5071372;28;20504;-71
2023/07/18 04:18:12;;;;;;;850.63;793.97;;;9.80;99.90;;;;;;5071342;28;20450;-71
2023/07/18 04:20:39;;;;;;;852.90;795.93;;;9.80;99.90;;;;;;5071387;28;20466;-71
2023/07/18 04:23:06;;;;;;;842.73;784.33;;;9.80;99.90;;;;;;5071356;28;20450;-71
2023/07/18 04:25:35;;;;;;;853.77;791.70;;;9.90;99.90;;;;;;5071298;28;20458;-71
2023/07/18 04:28:02;;;;;;;855.67;793.17;;;10.10;99.90;;;;;;5070730;28;20565;-71
2023/07/18 04:30:29;;;;;;;855.97;793.47;;;10.20;99.90;;;;;;5071454;28;20868;-71
2023/07/18 04:32:57;;;;;;;851.57;789.57;;;10.30;99.90;;;;;;5071093;28;20537;-71
2023/07/18 04:35:24;;;;;;;850.83;790.70;;;10.40;99.90;;;;;;5070927;28;20470;-71
2023/07/18 04:37:51;;;;;;;849.90;789.63;;;10.50;99.90;;;;;;5070276;28;20453;-71
2023/07/18 04:40:18;;;;;;;859.80;800.00;;;10.50;99.90;;;;;;5071161;28;20461;-71
2023/07/18 04:42:45;;;;;;;848.10;789.10;;;10.50;99.90;;;;;;5070776;28;20525;-71
2023/07/18 04:45:12;;;;;;;876.60;816.70;;;10.70;99.90;;;;;;5071090;28;20462;-71
2023/07/18 04:47:39;;;;;;;866.80;806.40;;;10.70;99.90;;;;;;5071161;28;20608;-71
2023/07/18 04:50:10;;;;;;;853.43;794.53;;;10.80;99.90;;;;;;5071106;28;20529;-71
2023/07/18 04:52:37;;;;;;;869.80;808.93;;;10.90;99.90;;;;;;5071175;28;20829;-71
2023/07/18 04:55:05;;;;;;;880.20;818.63;;;11.00;99.90;;;;;;5070964;28;20450;-71
2023/07/18 04:57:31;;;;;;;866.13;805.33;;;11.10;99.90;;;;;;5070822;28;20451;-71
2023/07/18 04:59:58;;;;;;;868.20;807.80;;;11.20;99.90;;;;;;5071226;28;20849;-71
2023/07/18 05:02:25;;;;;;;859.37;801.10;;;11.30;99.90;;;;;;5070665;28;20933;-71
2023/07/18 05:04:52;;;;;;;852.57;794.77;;;11.40;99.90;;;;;;5070792;28;20451;-71
2023/07/18 05:07:20;;;;;;;853.00;796.07;;;11.40;99.90;;;;;;5070494;28;20505;-71
2023/07/18 05:09:47;;;;;;;850.47;793.50;;;11.60;99.90;;;;;;5070576;28;20461;-71
2023/07/18 05:12:14;;;;;;;854.30;796.10;;;11.60;99.90;;;;;;5070676;28;20458;-71
2023/07/18 05:14:41;;;;;;;868.70;810.63;;;11.80;99.90;;;;;;5070871;28;20450;-71
2023/07/18 05:17:07;;;;;;;859.90;803.00;;;11.90;99.90;;;;;;5070537;28;20455;-72
2023/07/18 05:19:35;;;;;;;859.27;802.97;;;12.00;99.90;;;;;;5070573;28;20466;-72
2023/07/18 05:22:02;;;;;;;853.47;796.27;;;12.10;99.90;;;;;;5070472;28;20537;-72
2023/07/18 05:24:30;;;;;;;835.90;780.80;;;12.20;99.90;;;;;;5070456;28;21283;-72
2023/07/18 05:26:57;;;;;;;826.60;773.50;;;12.40;99.90;;;;;;5070214;28;20457;-72
2023/07/18 05:29:24;;;;;;;814.00;760.43;;;12.50;99.90;;;;;;5070591;28;20446;-72
2023/07/18 05:31:51;;;;;;;653.90;614.20;;;12.90;99.90;;;;;;5070478;28;20533;-72
2023/07/18 05:34:18;;;;;;;395.00;376.90;;;13.40;99.90;;;;;;5070562;28;20830;-72
2023/07/18 05:36:45;;;;;;;95.07;90.90;;;13.90;99.90;;;;;;5070060;28;20807;-73
2023/07/18 05:39:12;;;;;;;11.07;10.00;;;14.50;99.90;;;;;;5070703;28;20452;-73
2023/07/18 05:41:40;;;;;;;7.20;5.20;;;15.20;99.90;;;;;;5070387;28;20454;-72
2023/07/18 05:44:07;;;;;;;8.60;3.30;;;15.70;99.90;;;;;;5070421;28;20938;-73
2023/07/18 05:46:34;;;;;;;8.83;3.70;;;16.50;99.50;;;;;;5070089;28;20839;-73
2023/07/18 05:49:01;;;;;;;14.40;4.20;;;17.00;93.90;;;;;;5073626;28;20482;-73
2023/07/18 05:51:28;;;;;;;9.83;3.03;;;17.40;94.00;;;;;;5073892;28;20450;-73
2023/07/18 05:53:55;;;;;;;6.30;3.00;;;17.70;89.30;;;;;;5073959;28;20462;-73
2023/07/18 05:56:22;;;;;;;9.33;3.10;;;18.10;84.30;;;;;;5073629;28;20541;-73
2023/07/18 05:58:50;;;;;;;9.30;3.50;;;18.40;79.60;;;;;;5073955;28;20450;-73
2023/07/18 06:01:17;;;;;;;8.43;4.40;;;18.80;81.00;;;;;;5073869;28;20832;-73
2023/07/18 06:03:44;;;;;;;9.43;3.83;;;19.20;77.40;;;;;;5073850;28;20461;-73
2023/07/18 06:06:11;;;;;;;6.63;3.07;;;19.40;69.60;;;;;;5073157;28;20542;-73
2023/07/18 06:08:38;;;;;;;7.83;3.20;;;19.80;64.70;;;;;;5073288;28;20531;-73
2023/07/18 06:11:05;;;;;;;9.60;3.40;;;20.10;64.30;;;;;;5073501;28;20458;-79
2023/07/18 06:13:32;;;;;;;14.03;3.80;;;20.30;62.10;;;;;;5073137;28;20459;-79
2023/07/18 06:16:00;;;;;;;6.97;3.20;;;20.20;53.40;;;;;;5073861;28;20451;-79
2023/07/18 06:18:28;;;;;;;8.47;3.80;;;20.40;53.60;;;;;;5073975;28;20469;-79
2023/07/18 06:20:55;;;;;;;8.10;2.73;;;20.40;53.60;;;;;;5073914;28;20466;-79
2023/07/18 06:23:22;;;;;;;9.30;3.20;;;20.30;53.50;;;;;;5074296;28;20660;-79
2023/07/18 06:25:49;;;;;;;6.40;2.80;;;20.50;53.70;;;;;;5074079;28;20483;-79
2023/07/18 06:28:16;;;;;;;7.20;3.17;;;20.70;52.70;;;;;;5074197;28;20482;-78
2023/07/18 06:30:43;;;;;;;7.20;3.03;;;20.90;48.80;;;;;;5074485;28;20447;-77
2023/07/18 06:33:11;;;;;;;6.50;2.83;;;21.10;45.40;;;;;;5073939;28;20461;-77
2023/07/18 06:35:38;;;;;;;8.60;2.57;;;21.20;45.50;;;;;;5073363;28;20542;-77
2023/07/18 06:38:05;;;;;;;7.30;2.90;;;21.30;44.30;;;;;;5073247;28;20533;-78
2023/07/18 06:40:32;;;;;;;6.80;2.93;;;21.30;40.00;;;;;;5073293;28;20457;-78
2023/07/18 06:42:59;;;;;;;6.27;2.20;;;21.40;45.60;;;;;;5073257;28;20454;-78
2023/07/18 06:45:26;;;;;;;14.93;2.90;;;21.50;42.20;;;;;;5073002;28;20465;-77
2023/07/18 06:47:53;;;;;;;6.60;2.60;;;21.60;39.00;;;;;;5073100;28;20981;-78
2023/07/18 06:50:21;;;;;;;6.07;2.93;;;21.60;36.80;;;;;;5073365;28;20461;-77
2023/07/18 06:52:48;;;;;;;19.33;2.40;;;21.70;36.90;;;;;;5073907;28;20454;-77
2023/07/18 06:55:17;;;;;;;7.83;3.57;;;21.90;37.10;;;;;;5073106;28;20569;-77
2023/07/18 06:57:43;;;;;;;6.97;2.37;;;22.10;37.30;;;;;;5065101;28;20512;-78
2023/07/18 07:00:12;;;;;;;8.60;2.73;;;22.10;33.20;;;;;;5051996;28;21134;-77
2023/07/18 07:02:39;;;;;;;12.40;3.40;;;22.30;37.40;;;;;;5053014;28;20544;-77
2023/07/18 07:05:06;;;;;;;10.37;2.20;;;22.50;30.50;;;;;;5052245;28;20455;-78
2023/07/18 07:07:34;;;;;;;6.60;2.27;;;22.70;29.00;;;;;;5052846;28;20462;-78
2023/07/18 07:10:01;;;;;;;7.90;2.23;;;23.00;29.10;;;;;;5053091;28;20456;-77
2023/07/18 07:12:28;;;;;;;8.43;2.70;;;23.10;26.60;;;;;;5052421;28;20979;-77
2023/07/18 07:14:55;;;;;;;7.77;2.43;;;23.40;29.50;;;;;;5052742;28;21001;-77
2023/07/18 07:17:22;;;;;;;8.97;2.60;;;23.50;23.80;;;;;;5051736;28;21009;-77
2023/07/18 07:19:48;;;;;;;9.33;2.40;;;23.50;22.20;;;;;;5052360;28;20471;-77
2023/07/18 07:22:14;;;;;;;7.10;1.77;;;23.70;17.90;;;;;;5051056;28;20966;-75
2023/07/18 07:24:42;;;;;;;5.90;1.40;;;23.90;19.60;;;;;;5051888;28;20460;-75
2023/07/18 07:27:09;;;;;;;5.00;1.60;;;24.00;15.10;;;;;;5050882;28;20204;-69
2023/07/18 07:29:40;;;;;;;6.97;1.83;;;24.20;15.20;;;;;;5051495;28;20854;-70
2023/07/18 07:32:07;;;;;;;6.10;1.77;;;24.40;9.40;;;;;;5051079;28;20513;-71
2023/07/18 07:34:34;;;;;;;7.57;1.60;;;24.40;7.70;;;;;;5050544;28;20451;-69
2023/07/18 07:37:01;;;;;;;6.60;1.87;;;24.70;13.20;;;;;;5050997;28;20825;-69
2023/07/18 07:39:28;;;;;;;9.47;1.63;;;24.70;7.30;;;;;;5052563;28;20534;-69
2023/07/18 07:41:56;;;;;;;8.33;1.70;;;24.70;7.90;;;;;;5052359;28;20451;-70
2023/07/18 07:44:24;;;;;;;12.33;2.40;;;24.60;5.70;;;;;;5053065;28;20448;-69
2023/07/18 07:46:51;;;;;;;6.97;1.63;;;25.10;1.00;;;;;;5052426;28;20462;-70
2023/07/18 07:49:20;;;;;;;9.17;2.33;;;25.00;1.00;;;;;;5052417;28;20525;-70
2023/07/18 07:51:50;;;;;;;6.97;2.00;;;25.10;2.10;;;;;;5051865;28;20509;-70
2023/07/18 07:54:17;;;;;;;7.23;1.80;;;25.10;1.00;;;;;;5051600;28;20465;-74
2023/07/18 07:56:44;;;;;;;6.47;2.03;;;25.30;1.00;;;;;;5051768;28;20451;-74
2023/07/18 07:59:12;;;;;;;7.20;2.33;;;25.20;1.00;;;;;;5051940;28;20843;-74
2023/07/18 08:01:39;;;;;;;6.70;1.80;;;24.60;1.00;;;;;;5051862;28;20456;-74
2023/07/18 08:04:06;;;;;;;6.50;1.87;;;24.50;1.00;;;;;;5051672;28;20973;-74
2023/07/18 08:06:33;;;;;;;9.40;1.70;;;24.40;1.00;;;;;;5051489;28;20459;-74
2023/07/18 08:09:02;;;;;;;9.40;1.73;;;24.30;1.00;;;;;;5051992;28;20451;-74
2023/07/18 08:11:29;;;;;;;7.47;2.40;;;24.50;1.00;;;;;;5051548;28;20631;-74
2023/07/18 08:13:59;;;;;;;6.30;2.00;;;24.20;1.00;;;;;;5051612;28;20451;-73
2023/07/18 08:16:27;;;;;;;6.00;2.20;;;24.10;1.00;;;;;;5051511;28;20822;-73
2023/07/18 08:18:54;;;;;;;7.80;1.90;;;24.40;1.00;;;;;;5051428;28;20475;-74
2023/07/18 08:21:21;;;;;;;12.57;2.27;;;24.10;1.00;;;;;;5051193;28;20816;-73
2023/07/18 08:23:48;;;;;;;8.43;1.70;;;24.10;1.00;;;;;;5051247;28;20477;-73
2023/07/18 08:26:15;;;;;;;10.10;2.00;;;24.10;1.00;;;;;;5051049;28;20521;-73
2023/07/18 08:28:41;;;;;;;9.70;1.77;;;24.20;1.00;;;;;;5051479;28;20818;-73
2023/07/18 08:31:08;;;;;;;8.83;2.37;;;24.20;1.00;;;;;;5051202;28;20447;-74
2023/07/18 08:33:36;;;;;;;9.03;2.57;;;24.10;1.00;;;;;;5051158;28;20458;-73
2023/07/18 08:36:03;;;;;;;13.50;2.00;;;24.30;1.00;;;;;;5050687;28;20535;-74
2023/07/18 08:38:30;;;;;;;5.80;1.97;;;24.10;1.00;;;;;;5051333;28;20487;-74
2023/07/18 08:40:58;;;;;;;6.60;2.17;;;24.40;1.00;;;;;;5051200;28;20542;-74
2023/07/18 08:43:25;;;;;;;7.53;2.13;;;24.60;1.00;;;;;;5051279;28;20451;-74
2023/07/18 08:45:53;;;;;;;10.17;2.07;;;24.60;1.00;;;;;;5051479;28;20451;-74
2023/07/18 08:48:20;;;;;;;9.23;1.70;;;24.90;1.00;;;;;;5051116;28;20541;-74
2023/07/18 08:50:49;;;;;;;8.30;1.63;;;24.90;1.00;;;;;;5051212;28;20435;-74
2023/07/18 08:53:16;;;;;;;6.50;2.10;;;24.70;1.00;;;;;;5051127;28;20436;-74
2023/07/18 08:55:44;;;;;;;7.00;2.10;;;24.70;1.00;;;;;;5051190;28;20455;-73
2023/07/18 08:58:11;;;;;;;8.80;2.13;;;24.90;1.00;;;;;;5050593;28;20842;-73
2023/07/18 09:00:38;;;;;;;9.43;1.90;;;25.10;1.00;;;;;;5050924;28;20487;-73
2023/07/18 09:03:05;;;;;;;7.50;2.37;;;25.30;1.00;;;;;;5050580;28;20880;-73
2023/07/18 09:05:33;;;;;;;9.03;2.20;;;26.10;1.00;;;;;;5051139;28;20525;-74
2023/07/18 09:08:03;;;;;;;6.57;2.40;;;26.40;1.00;;;;;;5050468;28;20982;-74
2023/07/18 09:10:30;;;;;;;10.60;1.80;;;26.60;1.00;;;;;;5050670;28;20491;-74
2023/07/18 09:13:02;;;;;;;10.73;3.20;;;26.50;1.00;;;;;;5050664;28;20452;-73
2023/07/18 09:15:29;;;;;;;5.97;1.50;;;26.60;1.00;;;;;;5050808;28;20456;-73
2023/07/18 09:17:57;;;;;;;11.20;2.17;;;26.30;1.00;;;;;;5050327;28;20456;-74
2023/07/18 09:20:26;;;;;;;6.33;1.63;;;26.60;1.00;;;;;;5050619;28;20460;-73
2023/07/18 09:22:56;;;;;;;6.43;1.80;;;27.00;1.00;;;;;;5052310;28;20447;-73
2023/07/18 09:25:25;;;;;;;5.83;1.80;;;27.50;1.00;;;;;;5054751;28;20482;-74
2023/07/18 09:27:52;;;;;;;5.10;1.60;;;28.00;1.00;;;;;;5054434;28;20455;-74
2023/07/18 09:30:23;;;;;;;8.40;1.60;;;28.00;1.00;;;;;;5054626;28;20534;-72
2023/07/18 09:32:52;;;;;;;5.53;1.47;;;27.60;1.00;;;;;;5054669;28;20460;-73
2023/07/18 09:35:19;;;;;;;5.90;1.70;;;27.10;1.00;;;;;;5054695;28;20455;-73
2023/07/18 09:37:47;;;;;;;7.87;1.80;;;26.70;1.00;;;;;;5054053;28;20429;-74
2023/07/18 09:40:15;;;;;;;5.80;1.67;;;26.60;1.00;;;;;;5054416;28;20570;-74
2023/07/18 09:42:47;;;;;;;5.10;1.60;;;26.70;1.00;;;;;;5054220;28;20455;-74
2023/07/18 09:45:15;;;;;;;5.93;1.47;;;27.30;1.00;;;;;;5054419;28;20498;-74
2023/07/18 09:47:43;;;;;;;6.00;2.10;;;27.10;1.00;;;;;;5054051;28;20463;-74
2023/07/18 09:50:12;;;;;;;6.00;1.40;;;26.90;1.00;;;;;;5054281;28;20457;-74
2023/07/18 09:52:41;;;;;;;8.93;2.10;;;26.80;1.00;;;;;;5054173;28;20491;-74
2023/07/18 09:55:09;;;;;;;8.23;1.90;;;26.40;1.00;;;;;;5054098;28;20463;-74
2023/07/18 09:57:40;;;;;;;9.90;1.60;;;26.20;1.00;;;;;;5053991;28;20958;-74
2023/07/18 10:00:16;;;;;;;8.83;2.30;;;26.00;1.00;;;;;;5054326;28;20475;-74
2023/07/18 10:02:43;;;;;;;7.67;1.80;;;25.90;1.00;;;;;;5053982;28;20550;-74
2023/07/18 10:05:11;;;;;;;9.00;2.60;;;25.70;1.00;;;;;;5054079;28;20457;-74
2023/07/18 10:07:39;;;;;;;6.70;1.80;;;25.70;1.00;;;;;;5053787;28;20474;-74
2023/07/18 10:10:08;;;;;;;8.80;1.80;;;25.80;1.00;;;;;;5054392;28;20848;-74
2023/07/18 10:12:37;;;;;;;7.97;2.10;;;25.70;1.00;;;;;;5053879;28;20451;-74
2023/07/18 10:15:04;;;;;;;7.50;1.90;;;25.90;1.00;;;;;;5053831;28;20497;-74
2023/07/18 10:17:37;;;;;;;5.97;1.60;;;25.90;1.00;;;;;;5053988;28;20494;-74
2023/07/18 10:20:12;;;;;;;7.53;1.90;;;25.80;1.00;;;;;;5053432;28;20475;-74
2023/07/18 10:22:48;;;;;;;6.73;1.87;;;26.40;1.00;;;;;;5053523;28;20461;-74
2023/07/18 10:25:17;;;;;;;5.60;1.93;;;26.40;1.00;;;;;;5054047;28;20534;-74
2023/07/18 10:27:46;;;;;;;6.87;2.00;;;26.90;1.00;;;;;;5053292;28;20469;-74
2023/07/18 10:30:15;;;;;;;11.57;2.33;;;27.00;1.00;;;;;;5053531;28;20462;-74
2023/07/18 10:32:50;;;;;;;6.57;2.00;;;26.90;1.00;;;;;;5053021;28;20822;-77
2023/07/18 10:35:18;;;;;;;15.07;2.17;;;27.10;1.00;;;;;;5051724;28;20542;-74
2023/07/18 10:37:46;;;;;;;8.80;2.10;;;26.70;1.00;;;;;;5050186;28;20456;-74
2023/07/18 10:40:33;;;;;;;6.40;2.10;;;26.60;1.00;;;;;;5052510;28;20479;-74
2023/07/18 10:43:01;;;;;;;9.00;2.23;;;26.80;1.00;;;;;;5052375;28;20455;-74
2023/07/18 10:45:29;;;;;;;6.83;2.10;;;26.50;1.00;;;;;;5052590;28;20460;-74
2023/07/18 10:47:57;;;;;;;9.70;2.43;;;26.20;1.00;;;;;;5052450;28;20452;-74
2023/07/18 10:50:24;;;;;;;8.60;2.10;;;26.30;1.00;;;;;;5052386;28;20448;-73
2023/07/18 10:52:51;;;;;;;5.63;1.70;;;26.80;1.00;;;;;;5052319;28;20452;-73
2023/07/18 10:55:17;;;;;;;5.97;2.37;;;27.30;1.00;;;;;;5052370;28;20457;-76
2023/07/18 10:57:45;;;;;;;8.30;2.07;;;27.40;1.00;;;;;;5051831;28;20455;-76
2023/07/18 11:00:16;;;;;;;6.70;2.03;;;27.40;1.00;;;;;;5052371;28;20481;-73
2023/07/18 11:02:44;;;;;;;6.40;2.23;;;27.40;1.00;;;;;;5052423;28;20456;-73
2023/07/18 11:05:14;;;;;;;12.73;2.77;;;27.50;1.00;;;;;;5053253;28;20455;-73
2023/07/18 11:07:42;;;;;;;7.03;2.23;;;27.30;1.00;;;;;;5052385;28;20460;-73
2023/07/18 11:10:10;;;;;;;7.53;1.90;;;26.90;1.00;;;;;;5052785;28;20448;-74
2023/07/18 11:12:37;;;;;;;5.73;1.83;;;26.90;1.00;;;;;;5053033;28;20452;-73
2023/07/18 11:15:06;;;;;;;11.50;3.17;;;27.00;1.00;;;;;;5052846;28;20452;-74
2023/07/18 11:17:33;;;;;;;7.93;2.20;;;27.30;1.00;;;;;;5052621;28;20490;-74
2023/07/18 11:20:00;;;;;;;6.70;3.03;;;27.30;1.00;;;;;;5052571;28;20482;-74
2023/07/18 11:22:30;;;;;;;8.00;2.47;;;27.50;1.00;;;;;;5052486;28;20452;-73
2023/07/18 11:24:59;;;;;;;6.90;2.10;;;28.50;1.00;;;;;;5052605;28;20449;-73
2023/07/18 11:27:27;;;;;;;6.73;1.80;;;29.40;1.00;;;;;;5052470;28;20458;-74
2023/07/18 11:29:57;;;;;;;5.53;1.93;;;29.60;1.00;;;;;;5052993;28;20447;-73
2023/07/18 11:32:38;;;;;;;5.90;2.10;;;29.30;1.00;;;;;;5052609;28;20430;-74
2023/07/18 11:35:07;;;;;;;11.73;2.47;;;29.10;1.00;;;;;;5052671;28;20459;-74
2023/07/18 11:37:36;;;;;;;5.53;1.90;;;29.20;1.00;;;;;;5052564;28;20540;-74
2023/07/18 11:40:03;;;;;;;9.30;2.30;;;29.20;1.00;;;;;;5052364;28;20480;-73
2023/07/18 11:42:47;;;;;;;6.53;1.80;;;29.40;1.00;;;;;;5052371;28;20542;-74
2023/07/18 11:45:17;;;;;;;8.00;2.10;;;28.80;1.00;;;;;;5052185;28;20467;-74
2023/07/18 11:47:45;;;;;;;9.43;2.33;;;28.30;1.00;;;;;;5051886;28;20458;-74
2023/07/18 11:50:13;;;;;;;7.57;2.43;;;28.70;1.00;;;;;;5052401;28;20542;-74
2023/07/18 11:52:47;;;;;;;7.53;1.90;;;29.00;1.00;;;;;;5052414;28;20452;-74
2023/07/18 11:55:14;;;;;;;7.33;2.47;;;29.50;1.00;;;;;;5052526;28;20509;-74
2023/07/18 11:57:41;;;;;;;7.17;2.30;;;29.70;1.00;;;;;;5051835;28;20448;-73
2023/07/18 12:00:10;;;;;;;7.53;2.03;;;30.00;1.00;;;;;;5052005;28;20935;-73
2023/07/18 12:02:37;;;;;;;12.10;3.20;;;29.70;1.00;;;;;;5052430;28;20547;-73
2023/07/18 12:05:05;;;;;;;8.45;2.45;;;29.60;1.00;;;;;;5051885;28;20451;-73
2023/07/18 12:07:32;;;;;;;7.80;2.20;;;29.60;1.00;;;;;;5051575;28;20292;-75
2023/07/18 12:10:00;;;;;;;10.30;2.57;;;30.70;1.00;;;;;;5051559;28;20433;-76
2023/07/18 12:12:27;;;;;;;8.30;2.20;;;30.90;1.00;;;;;;5050493;28;20460;-75
2023/07/18 12:14:54;;;;;;;5.70;2.43;;;30.40;1.00;;;;;;5050947;28;20954;-76
2023/07/18 12:17:24;;;;;;;8.30;1.97;;;30.80;1.00;;;;;;5050610;28;20462;-76
2023/07/18 12:19:51;;;;;;;6.90;2.63;;;30.50;1.00;;;;;;5051121;28;20545;-76
2023/07/18 12:22:21;;;;;;;7.97;2.37;;;31.40;1.00;;;;;;5050540;28;20944;-76
2023/07/18 12:24:50;;;;;;;9.90;3.10;;;31.30;1.00;;;;;;5050725;28;20458;-76
2023/07/18 12:27:19;;;;;;;7.23;2.33;;;31.10;1.00;;;;;;5050230;28;20459;-76
2023/07/18 12:29:46;;;;;;;8.47;2.60;;;32.30;1.00;;;;;;5050843;28;20451;-77
2023/07/18 12:32:13;;;;;;;8.40;3.13;;;32.00;1.00;;;;;;5050333;28;20437;-78
2023/07/18 12:34:42;;;;;;;7.40;2.80;;;31.10;1.00;;;;;;5050545;28;20445;-77
2023/07/18 12:37:09;;;;;;;8.67;2.73;;;30.90;1.00;;;;;;5050352;28;20455;-76